sensor_id;sensor_type;location;lat;lon;timestamp;temperature;humidity
58809;DHT22;44579;51.672;7.834;2023-08-12T00:01:29;22.40;77.10
58809;DHT22;44579;51.672;7.834;2023-08-12T00:04:05;22.40;76.60
58809;DHT22;44579;51.672;7.834;2023-08-12T00:06:36;22.50;76.00
58809;DHT22;44579;51.672;7.834;2023-08-12T00:09:05;22.40;76.30
58809;DHT22;44579;51.672;7.834;2023-08-12T00:11:38;22.30;78.30
58809;DHT22;44579;51.672;7.834;2023-08-12T00:14:09;22.20;78.90
58809;DHT22;44579;51.672;7.834;2023-08-12T00:16:42;22.20;79.10
58809;DHT22;44579;51.672;7.834;2023-08-12T00:19:10;22.20;78.90
58809;DHT22;44579;51.672;7.834;2023-08-12T00:21:41;22.10;78.50
58809;DHT22;44579;51.672;7.834;2023-08-12T00:24:12;22.10;78.10
58809;DHT22;44579;51.672;7.834;2023-08-12T00:26:40;22.10;78.60
58809;DHT22;44579;51.672;7.834;2023-08-12T00:29:12;22.10;78.70
58809;DHT22;44579;51.672;7.834;2023-08-12T00:31:40;22.00;79.20
58809;DHT22;44579;51.672;7.834;2023-08-12T00:34:10;22.10;79.00
58809;DHT22;44579;51.672;7.834;2023-08-12T00:36:38;22.00;78.90
58809;DHT22;44579;51.672;7.834;2023-08-12T00:39:12;22.00;80.10
58809;DHT22;44579;51.672;7.834;2023-08-12T00:41:42;21.90;80.10
58809;DHT22;44579;51.672;7.834;2023-08-12T00:44:14;21.90;80.00
58809;DHT22;44579;51.672;7.834;2023-08-12T00:47:07;21.90;80.70
58809;DHT22;44579;51.672;7.834;2023-08-12T00:49:39;21.90;79.30
58809;DHT22;44579;51.672;7.834;2023-08-12T00:52:13;22.00;79.00
58809;DHT22;44579;51.672;7.834;2023-08-12T00:54:46;21.90;79.00
58809;DHT22;44579;51.672;7.834;2023-08-12T00:57:20;21.90;79.40
58809;DHT22;44579;51.672;7.834;2023-08-12T00:59:51;21.80;79.80
58809;DHT22;44579;51.672;7.834;2023-08-12T01:02:24;21.70;81.10
58809;DHT22;44579;51.672;7.834;2023-08-12T01:05:07;21.60;81.70
58809;DHT22;44579;51.672;7.834;2023-08-12T01:07:38;21.70;81.40
58809;DHT22;44579;51.672;7.834;2023-08-12T01:10:08;21.70;80.80
58809;DHT22;44579;51.672;7.834;2023-08-12T01:12:43;21.80;80.30
58809;DHT22;44579;51.672;7.834;2023-08-12T01:15:15;21.80;79.60
58809;DHT22;44579;51.672;7.834;2023-08-12T01:17:58;21.90;79.10
58809;DHT22;44579;51.672;7.834;2023-08-12T01:20:28;21.90;78.60
58809;DHT22;44579;51.672;7.834;2023-08-12T01:23:08;22.00;78.10
58809;DHT22;44579;51.672;7.834;2023-08-12T01:25:44;22.00;77.70
58809;DHT22;44579;51.672;7.834;2023-08-12T01:28:11;22.00;77.50
58809;DHT22;44579;51.672;7.834;2023-08-12T01:30:46;22.00;77.30
58809;DHT22;44579;51.672;7.834;2023-08-12T01:33:31;22.00;77.00
58809;DHT22;44579;51.672;7.834;2023-08-12T01:39:03;22.10;76.60
58809;DHT22;44579;51.672;7.834;2023-08-12T01:41:42;22.00;76.40
58809;DHT22;44579;51.672;7.834;2023-08-12T01:44:12;22.00;76.30
58809;DHT22;44579;51.672;7.834;2023-08-12T01:46:46;22.00;76.20
58809;DHT22;44579;51.672;7.834;2023-08-12T01:49:14;22.00;76.10
58809;DHT22;44579;51.672;7.834;2023-08-12T01:51:43;22.00;75.90
58809;DHT22;44579;51.672;7.834;2023-08-12T01:54:26;22.00;75.80
58809;DHT22;44579;51.672;7.834;2023-08-12T01:56:56;22.00;75.70
58809;DHT22;44579;51.672;7.834;2023-08-12T01:59:27;22.00;75.70
58809;DHT22;44579;51.672;7.834;2023-08-12T02:02:04;22.00;75.70
58809;DHT22;44579;51.672;7.834;2023-08-12T02:04:34;21.90;75.60
58809;DHT22;44579;51.672;7.834;2023-08-12T02:07:02;21.90;75.60
58809;DHT22;44579;51.672;7.834;2023-08-12T02:09:29;21.90;75.60
58809;DHT22;44579;51.672;7.834;2023-08-12T02:11:57;21.90;75.60
58809;DHT22;44579;51.672;7.834;2023-08-12T02:14:33;21.90;75.50
58809;DHT22;44579;51.672;7.834;2023-08-12T02:17:05;21.80;75.40
58809;DHT22;44579;51.672;7.834;2023-08-12T02:19:36;21.90;75.50
58809;DHT22;44579;51.672;7.834;2023-08-12T02:22:14;21.80;75.30
58809;DHT22;44579;51.672;7.834;2023-08-12T02:25:02;21.80;75.30
58809;DHT22;44579;51.672;7.834;2023-08-12T02:27:36;21.80;75.20
58809;DHT22;44579;51.672;7.834;2023-08-12T02:30:09;21.80;75.10
58809;DHT22;44579;51.672;7.834;2023-08-12T02:32:37;21.80;75.10
58809;DHT22;44579;51.672;7.834;2023-08-12T02:35:05;21.80;75.10
58809;DHT22;44579;51.672;7.834;2023-08-12T02:37:37;21.80;75.00
58809;DHT22;44579;51.672;7.834;2023-08-12T02:40:05;21.80;75.00
58809;DHT22;44579;51.672;7.834;2023-08-12T02:42:34;21.80;74.90
58809;DHT22;44579;51.672;7.834;2023-08-12T02:45:06;21.80;74.80
58809;DHT22;44579;51.672;7.834;2023-08-12T02:51:08;21.80;74.50
58809;DHT22;44579;51.672;7.834;2023-08-12T02:54:28;21.80;74.60
58809;DHT22;44579;51.672;7.834;2023-08-12T02:57:16;21.80;74.50
58809;DHT22;44579;51.672;7.834;2023-08-12T02:59:49;21.80;74.60
58809;DHT22;44579;51.672;7.834;2023-08-12T03:02:49;21.80;74.50
58809;DHT22;44579;51.672;7.834;2023-08-12T03:05:35;21.80;74.40
58809;DHT22;44579;51.672;7.834;2023-08-12T03:08:08;21.80;74.30
58809;DHT22;44579;51.672;7.834;2023-08-12T03:10:38;21.70;74.20
58809;DHT22;44579;51.672;7.834;2023-08-12T03:14:04;21.80;74.30
58809;DHT22;44579;51.672;7.834;2023-08-12T03:16:38;21.80;74.20
58809;DHT22;44579;51.672;7.834;2023-08-12T03:19:09;21.80;74.20
58809;DHT22;44579;51.672;7.834;2023-08-12T03:21:45;21.70;74.10
58809;DHT22;44579;51.672;7.834;2023-08-12T03:24:13;21.70;74.10
58809;DHT22;44579;51.672;7.834;2023-08-12T03:26:49;21.70;74.20
58809;DHT22;44579;51.672;7.834;2023-08-12T03:29:24;21.60;74.20
58809;DHT22;44579;51.672;7.834;2023-08-12T03:32:00;21.60;74.20
58809;DHT22;44579;51.672;7.834;2023-08-12T03:34:32;21.60;74.20
58809;DHT22;44579;51.672;7.834;2023-08-12T03:36:59;21.60;74.20
58809;DHT22;44579;51.672;7.834;2023-08-12T03:39:27;21.60;74.10
58809;DHT22;44579;51.672;7.834;2023-08-12T03:42:02;21.60;74.00
58809;DHT22;44579;51.672;7.834;2023-08-12T03:44:50;21.60;73.90
58809;DHT22;44579;51.672;7.834;2023-08-12T03:47:21;21.60;74.00
58809;DHT22;44579;51.672;7.834;2023-08-12T03:49:51;21.60;74.00
58809;DHT22;44579;51.672;7.834;2023-08-12T03:52:21;21.60;74.00
58809;DHT22;44579;51.672;7.834;2023-08-12T03:54:51;21.60;73.90
58809;DHT22;44579;51.672;7.834;2023-08-12T03:57:21;21.60;74.10
58809;DHT22;44579;51.672;7.834;2023-08-12T03:59:52;21.60;74.10
58809;DHT22;44579;51.672;7.834;2023-08-12T04:02:23;21.50;74.00
58809;DHT22;44579;51.672;7.834;2023-08-12T04:05:15;21.50;74.00
58809;DHT22;44579;51.672;7.834;2023-08-12T04:07:45;21.50;74.00
58809;DHT22;44579;51.672;7.834;2023-08-12T04:10:13;21.60;74.80
58809;DHT22;44579;51.672;7.834;2023-08-12T04:12:42;21.50;73.90
58809;DHT22;44579;51.672;7.834;2023-08-12T04:15:13;21.50;73.90
58809;DHT22;44579;51.672;7.834;2023-08-12T04:17:48;21.50;73.90
58809;DHT22;44579;51.672;7.834;2023-08-12T04:20:21;21.50;74.00
58809;DHT22;44579;51.672;7.834;2023-08-12T04:22:50;21.50;74.00
58809;DHT22;44579;51.672;7.834;2023-08-12T04:25:31;21.50;74.00
58809;DHT22;44579;51.672;7.834;2023-08-12T04:27:59;21.40;73.90
58809;DHT22;44579;51.672;7.834;2023-08-12T04:30:42;21.40;74.00
58809;DHT22;44579;51.672;7.834;2023-08-12T04:33:39;21.40;74.10
58809;DHT22;44579;51.672;7.834;2023-08-12T04:36:07;21.30;74.20
58809;DHT22;44579;51.672;7.834;2023-08-12T04:38:42;21.30;74.30
58809;DHT22;44579;51.672;7.834;2023-08-12T04:41:23;21.30;74.30
58809;DHT22;44579;51.672;7.834;2023-08-12T04:44:04;21.30;74.40
58809;DHT22;44579;51.672;7.834;2023-08-12T04:46:33;21.30;74.40
58809;DHT22;44579;51.672;7.834;2023-08-12T04:53:06;21.20;74.40
58809;DHT22;44579;51.672;7.834;2023-08-12T04:55:37;21.30;74.40
58809;DHT22;44579;51.672;7.834;2023-08-12T04:58:05;21.30;74.40
58809;DHT22;44579;51.672;7.834;2023-08-12T05:00:33;21.30;74.40
58809;DHT22;44579;51.672;7.834;2023-08-12T05:03:02;21.40;74.50
58809;DHT22;44579;51.672;7.834;2023-08-12T05:05:43;21.40;74.40
58809;DHT22;44579;51.672;7.834;2023-08-12T05:08:15;21.50;74.50
58809;DHT22;44579;51.672;7.834;2023-08-12T05:10:46;21.50;74.50
58809;DHT22;44579;51.672;7.834;2023-08-12T05:13:18;21.60;74.40
58809;DHT22;44579;51.672;7.834;2023-08-12T05:15:48;21.80;74.70
58809;DHT22;44579;51.672;7.834;2023-08-12T05:18:19;22.00;75.20
58809;DHT22;44579;51.672;7.834;2023-08-12T05:20:47;22.10;75.80
58809;DHT22;44579;51.672;7.834;2023-08-12T05:23:20;22.10;76.30
58809;DHT22;44579;51.672;7.834;2023-08-12T05:25:53;22.10;76.40
58809;DHT22;44579;51.672;7.834;2023-08-12T05:31:29;22.00;76.20
58809;DHT22;44579;51.672;7.834;2023-08-12T05:34:15;22.00;76.00
58809;DHT22;44579;51.672;7.834;2023-08-12T05:37:22;22.00;75.80
58809;DHT22;44579;51.672;7.834;2023-08-12T05:40:28;22.00;75.70
58809;DHT22;44579;51.672;7.834;2023-08-12T05:43:28;21.90;75.60
58809;DHT22;44579;51.672;7.834;2023-08-12T05:46:31;22.00;75.70
58809;DHT22;44579;51.672;7.834;2023-08-12T05:49:30;22.00;75.50
58809;DHT22;44579;51.672;7.834;2023-08-12T05:52:20;22.10;75.30
58809;DHT22;44579;51.672;7.834;2023-08-12T05:55:22;22.20;75.30
58809;DHT22;44579;51.672;7.834;2023-08-12T05:58:49;22.30;75.30
58809;DHT22;44579;51.672;7.834;2023-08-12T06:01:32;22.40;75.50
58809;DHT22;44579;51.672;7.834;2023-08-12T06:04:24;22.70;76.20
58809;DHT22;44579;51.672;7.834;2023-08-12T06:07:26;23.00;76.80
58809;DHT22;44579;51.672;7.834;2023-08-12T06:10:14;23.20;77.00
58809;DHT22;44579;51.672;7.834;2023-08-12T06:12:42;23.40;77.10
58809;DHT22;44579;51.672;7.834;2023-08-12T06:15:12;23.40;77.20
58809;DHT22;44579;51.672;7.834;2023-08-12T06:17:56;23.60;77.50
58809;DHT22;44579;51.672;7.834;2023-08-12T06:20:24;23.60;77.90
58809;DHT22;44579;51.672;7.834;2023-08-12T06:23:03;23.70;77.90
58809;DHT22;44579;51.672;7.834;2023-08-12T06:25:30;23.80;77.90
58809;DHT22;44579;51.672;7.834;2023-08-12T06:28:01;23.80;77.70
58809;DHT22;44579;51.672;7.834;2023-08-12T06:30:34;23.80;77.70
58809;DHT22;44579;51.672;7.834;2023-08-12T06:33:03;23.80;77.70
58809;DHT22;44579;51.672;7.834;2023-08-12T06:35:34;23.80;77.60
58809;DHT22;44579;51.672;7.834;2023-08-12T06:38:02;23.90;77.40
58809;DHT22;44579;51.672;7.834;2023-08-12T06:40:33;23.90;77.40
58809;DHT22;44579;51.672;7.834;2023-08-12T06:43:02;23.70;77.50
58809;DHT22;44579;51.672;7.834;2023-08-12T06:45:31;23.70;77.60
58809;DHT22;44579;51.672;7.834;2023-08-12T06:47:58;23.70;77.70
58809;DHT22;44579;51.672;7.834;2023-08-12T06:50:26;23.80;77.60
58809;DHT22;44579;51.672;7.834;2023-08-12T06:52:55;23.90;77.60
58809;DHT22;44579;51.672;7.834;2023-08-12T06:55:22;24.00;77.40
58809;DHT22;44579;51.672;7.834;2023-08-12T06:57:51;24.00;77.30
58809;DHT22;44579;51.672;7.834;2023-08-12T07:00:19;24.10;77.20
58809;DHT22;44579;51.672;7.834;2023-08-12T07:02:47;24.10;77.20
58809;DHT22;44579;51.672;7.834;2023-08-12T07:05:15;24.10;77.30
58809;DHT22;44579;51.672;7.834;2023-08-12T07:07:45;23.90;77.50
58809;DHT22;44579;51.672;7.834;2023-08-12T07:10:13;23.90;77.70
58809;DHT22;44579;51.672;7.834;2023-08-12T07:12:43;23.90;77.80
58809;DHT22;44579;51.672;7.834;2023-08-12T07:15:23;23.80;77.90
58809;DHT22;44579;51.672;7.834;2023-08-12T07:17:53;23.70;77.90
58809;DHT22;44579;51.672;7.834;2023-08-12T07:20:26;23.60;77.90
58809;DHT22;44579;51.672;7.834;2023-08-12T07:22:53;23.60;77.90
58809;DHT22;44579;51.672;7.834;2023-08-12T07:25:21;23.50;77.80
58809;DHT22;44579;51.672;7.834;2023-08-12T07:27:51;23.50;77.80
58809;DHT22;44579;51.672;7.834;2023-08-12T07:30:18;23.40;77.70
58809;DHT22;44579;51.672;7.834;2023-08-12T07:32:46;23.40;77.70
58809;DHT22;44579;51.672;7.834;2023-08-12T07:35:13;23.30;77.70
58809;DHT22;44579;51.672;7.834;2023-08-12T07:37:40;23.30;77.70
58809;DHT22;44579;51.672;7.834;2023-08-12T07:40:08;23.20;77.60
58809;DHT22;44579;51.672;7.834;2023-08-12T07:42:36;23.20;77.60
58809;DHT22;44579;51.672;7.834;2023-08-12T07:45:03;23.10;77.50
58809;DHT22;44579;51.672;7.834;2023-08-12T07:47:30;23.00;77.60
58809;DHT22;44579;51.672;7.834;2023-08-12T07:49:58;23.00;77.70
58809;DHT22;44579;51.672;7.834;2023-08-12T07:52:25;22.90;77.70
58809;DHT22;44579;51.672;7.834;2023-08-12T07:54:52;22.90;77.60
58809;DHT22;44579;51.672;7.834;2023-08-12T07:57:22;22.90;77.60
58809;DHT22;44579;51.672;7.834;2023-08-12T07:59:51;22.90;77.40
58809;DHT22;44579;51.672;7.834;2023-08-12T08:02:18;22.80;78.20
58809;DHT22;44579;51.672;7.834;2023-08-12T08:04:45;22.90;77.20
58809;DHT22;44579;51.672;7.834;2023-08-12T08:07:17;22.80;77.00
58809;DHT22;44579;51.672;7.834;2023-08-12T08:09:44;22.90;77.00
58809;DHT22;44579;51.672;7.834;2023-08-12T08:12:11;22.90;76.90
58809;DHT22;44579;51.672;7.834;2023-08-12T08:14:40;23.00;76.90
58809;DHT22;44579;51.672;7.834;2023-08-12T08:17:07;23.00;76.70
58809;DHT22;44579;51.672;7.834;2023-08-12T08:19:35;23.10;76.70
58809;DHT22;44579;51.672;7.834;2023-08-12T08:22:02;23.10;76.60
58809;DHT22;44579;51.672;7.834;2023-08-12T08:24:30;23.20;76.50
58809;DHT22;44579;51.672;7.834;2023-08-12T08:26:57;23.30;76.40
58809;DHT22;44579;51.672;7.834;2023-08-12T08:29:25;23.50;76.40
58809;DHT22;44579;51.672;7.834;2023-08-12T08:31:55;23.60;76.30
58809;DHT22;44579;51.672;7.834;2023-08-12T08:34:22;23.70;76.20
58809;DHT22;44579;51.672;7.834;2023-08-12T08:36:50;23.70;76.30
58809;DHT22;44579;51.672;7.834;2023-08-12T08:39:19;23.80;76.40
58809;DHT22;44579;51.672;7.834;2023-08-12T08:41:47;23.90;76.50
58809;DHT22;44579;51.672;7.834;2023-08-12T08:44:15;23.90;76.60
58809;DHT22;44579;51.672;7.834;2023-08-12T08:46:43;24.00;76.70
58809;DHT22;44579;51.672;7.834;2023-08-12T08:49:13;24.00;76.80
58809;DHT22;44579;51.672;7.834;2023-08-12T08:51:43;24.10;77.00
58809;DHT22;44579;51.672;7.834;2023-08-12T08:54:10;24.20;77.00
58809;DHT22;44579;51.672;7.834;2023-08-12T08:56:42;24.30;77.00
58809;DHT22;44579;51.672;7.834;2023-08-12T08:59:24;24.40;77.10
58809;DHT22;44579;51.672;7.834;2023-08-12T09:01:52;24.50;77.10
58809;DHT22;44579;51.672;7.834;2023-08-12T09:04:23;24.60;77.00
58809;DHT22;44579;51.672;7.834;2023-08-12T09:06:51;24.70;77.00
58809;DHT22;44579;51.672;7.834;2023-08-12T09:09:23;24.70;77.20
58809;DHT22;44579;51.672;7.834;2023-08-12T09:11:51;24.80;77.60
58809;DHT22;44579;51.672;7.834;2023-08-12T09:14:19;24.80;77.60
58809;DHT22;44579;51.672;7.834;2023-08-12T09:16:47;24.90;77.70
58809;DHT22;44579;51.672;7.834;2023-08-12T09:19:14;25.00;77.70
58809;DHT22;44579;51.672;7.834;2023-08-12T09:21:42;25.10;77.70
58809;DHT22;44579;51.672;7.834;2023-08-12T09:24:09;25.20;77.80
58809;DHT22;44579;51.672;7.834;2023-08-12T09:26:36;25.20;77.90
58809;DHT22;44579;51.672;7.834;2023-08-12T09:29:03;25.30;78.20
58809;DHT22;44579;51.672;7.834;2023-08-12T09:31:32;25.30;78.20
58809;DHT22;44579;51.672;7.834;2023-08-12T09:34:05;25.40;78.60
58809;DHT22;44579;51.672;7.834;2023-08-12T09:36:36;25.40;78.70
58809;DHT22;44579;51.672;7.834;2023-08-12T09:39:07;25.40;78.70
58809;DHT22;44579;51.672;7.834;2023-08-12T09:41:37;25.50;78.70
58809;DHT22;44579;51.672;7.834;2023-08-12T09:44:07;25.60;78.70
58809;DHT22;44579;51.672;7.834;2023-08-12T09:46:35;25.60;78.70
58809;DHT22;44579;51.672;7.834;2023-08-12T09:49:02;25.60;79.10
58809;DHT22;44579;51.672;7.834;2023-08-12T09:51:37;25.60;79.40
58809;DHT22;44579;51.672;7.834;2023-08-12T09:54:06;25.60;79.50
58809;DHT22;44579;51.672;7.834;2023-08-12T09:56:43;25.50;79.70
58809;DHT22;44579;51.672;7.834;2023-08-12T09:59:16;25.40;80.00
58809;DHT22;44579;51.672;7.834;2023-08-12T10:01:45;25.30;80.20
58809;DHT22;44579;51.672;7.834;2023-08-12T10:04:13;25.10;80.40
58809;DHT22;44579;51.672;7.834;2023-08-12T10:06:43;25.10;80.60
58809;DHT22;44579;51.672;7.834;2023-08-12T10:09:11;25.00;80.80
58809;DHT22;44579;51.672;7.834;2023-08-12T10:11:42;25.00;80.70
58809;DHT22;44579;51.672;7.834;2023-08-12T10:14:21;25.00;80.60
58809;DHT22;44579;51.672;7.834;2023-08-12T10:16:48;25.00;80.80
58809;DHT22;44579;51.672;7.834;2023-08-12T10:19:16;24.90;80.90
58809;DHT22;44579;51.672;7.834;2023-08-12T10:21:48;24.90;80.90
58809;DHT22;44579;51.672;7.834;2023-08-12T10:24:17;24.90;80.90
58809;DHT22;44579;51.672;7.834;2023-08-12T10:26:45;25.00;81.00
58809;DHT22;44579;51.672;7.834;2023-08-12T10:29:13;25.10;81.00
58809;DHT22;44579;51.672;7.834;2023-08-12T10:31:40;25.30;80.90
58809;DHT22;44579;51.672;7.834;2023-08-12T10:34:22;25.50;80.50
58809;DHT22;44579;51.672;7.834;2023-08-12T10:36:57;25.70;81.40
58809;DHT22;44579;51.672;7.834;2023-08-12T10:39:27;25.70;80.90
58809;DHT22;44579;51.672;7.834;2023-08-12T10:41:57;25.70;81.10
58809;DHT22;44579;51.672;7.834;2023-08-12T10:45:10;25.60;81.30
58809;DHT22;44579;51.672;7.834;2023-08-12T10:47:17;25.50;81.70
58809;DHT22;44579;51.672;7.834;2023-08-12T10:49:48;25.40;81.70
58809;DHT22;44579;51.672;7.834;2023-08-12T10:52:29;25.40;81.70
58809;DHT22;44579;51.672;7.834;2023-08-12T10:57:46;25.40;81.60
58809;DHT22;44579;51.672;7.834;2023-08-12T11:00:13;25.30;81.60
58809;DHT22;44579;51.672;7.834;2023-08-12T11:02:44;25.30;81.60
58809;DHT22;44579;51.672;7.834;2023-08-12T11:05:13;25.30;81.70
58809;DHT22;44579;51.672;7.834;2023-08-12T11:07:45;25.30;81.60
58809;DHT22;44579;51.672;7.834;2023-08-12T11:12:42;25.50;81.10
58809;DHT22;44579;51.672;7.834;2023-08-12T11:15:17;25.70;81.00
58809;DHT22;44579;51.672;7.834;2023-08-12T11:17:46;25.80;80.80
58809;DHT22;44579;51.672;7.834;2023-08-12T11:20:13;25.90;81.20
58809;DHT22;44579;51.672;7.834;2023-08-12T11:22:42;25.90;81.10
58809;DHT22;44579;51.672;7.834;2023-08-12T11:25:11;25.90;80.90
58809;DHT22;44579;51.672;7.834;2023-08-12T11:30:07;25.80;81.40
58809;DHT22;44579;51.672;7.834;2023-08-12T11:32:38;25.70;81.60
58809;DHT22;44579;51.672;7.834;2023-08-12T11:35:06;25.70;81.70
58809;DHT22;44579;51.672;7.834;2023-08-12T11:37:38;25.80;81.70
58809;DHT22;44579;51.672;7.834;2023-08-12T11:40:06;25.90;81.40
58809;DHT22;44579;51.672;7.834;2023-08-12T11:42:39;26.00;81.30
58809;DHT22;44579;51.672;7.834;2023-08-12T11:45:07;26.00;81.10
58809;DHT22;44579;51.672;7.834;2023-08-12T11:47:35;26.00;81.30
58809;DHT22;44579;51.672;7.834;2023-08-12T11:50:03;25.90;81.10
58809;DHT22;44579;51.672;7.834;2023-08-12T11:52:36;25.80;81.00
58809;DHT22;44579;51.672;7.834;2023-08-12T11:55:04;25.70;82.00
58809;DHT22;44579;51.672;7.834;2023-08-12T11:57:32;25.60;81.20
58809;DHT22;44579;51.672;7.834;2023-08-12T12:00:02;25.50;81.10
58809;DHT22;44579;51.672;7.834;2023-08-12T12:02:49;25.50;81.00
58809;DHT22;44579;51.672;7.834;2023-08-12T12:05:20;25.30;81.00
58809;DHT22;44579;51.672;7.834;2023-08-12T12:07:51;25.10;80.70
58809;DHT22;44579;51.672;7.834;2023-08-12T12:10:20;24.90;80.80
58809;DHT22;44579;51.672;7.834;2023-08-12T12:12:49;24.70;80.80
58809;DHT22;44579;51.672;7.834;2023-08-12T12:15:22;24.50;81.20
58809;DHT22;44579;51.672;7.834;2023-08-12T12:17:50;24.40;81.30
58809;DHT22;44579;51.672;7.834;2023-08-12T12:20:19;24.40;81.00
58809;DHT22;44579;51.672;7.834;2023-08-12T12:22:47;24.30;80.60
58809;DHT22;44579;51.672;7.834;2023-08-12T12:25:17;24.10;80.40
58809;DHT22;44579;51.672;7.834;2023-08-12T12:27:46;24.00;80.60
58809;DHT22;44579;51.672;7.834;2023-08-12T12:30:16;23.90;80.60
58809;DHT22;44579;51.672;7.834;2023-08-12T12:32:51;23.80;80.70
58809;DHT22;44579;51.672;7.834;2023-08-12T12:35:18;23.70;80.60
58809;DHT22;44579;51.672;7.834;2023-08-12T12:37:45;23.70;80.50
58809;DHT22;44579;51.672;7.834;2023-08-12T12:40:13;23.80;81.30
58809;DHT22;44579;51.672;7.834;2023-08-12T12:42:40;23.70;80.20
58809;DHT22;44579;51.672;7.834;2023-08-12T12:45:10;23.70;80.40
58809;DHT22;44579;51.672;7.834;2023-08-12T12:47:37;23.90;80.10
58809;DHT22;44579;51.672;7.834;2023-08-12T12:50:05;24.10;79.70
58809;DHT22;44579;51.672;7.834;2023-08-12T12:52:36;24.30;79.50
58809;DHT22;44579;51.672;7.834;2023-08-12T12:55:04;24.60;79.50
58809;DHT22;44579;51.672;7.834;2023-08-12T12:57:32;24.90;79.10
58809;DHT22;44579;51.672;7.834;2023-08-12T13:00:01;25.10;78.80
58809;DHT22;44579;51.672;7.834;2023-08-12T13:02:29;25.40;78.60
58809;DHT22;44579;51.672;7.834;2023-08-12T13:04:57;25.50;78.40
58809;DHT22;44579;51.672;7.834;2023-08-12T13:07:24;25.70;78.50
58809;DHT22;44579;51.672;7.834;2023-08-12T13:09:51;25.80;78.60
58809;DHT22;44579;51.672;7.834;2023-08-12T13:12:24;25.90;78.90
58809;DHT22;44579;51.672;7.834;2023-08-12T13:14:52;25.80;79.40
58809;DHT22;44579;51.672;7.834;2023-08-12T13:17:25;25.80;79.50
58809;DHT22;44579;51.672;7.834;2023-08-12T13:19:55;25.90;79.80
58809;DHT22;44579;51.672;7.834;2023-08-12T13:22:22;25.90;79.80
58809;DHT22;44579;51.672;7.834;2023-08-12T13:24:49;26.00;79.60
58809;DHT22;44579;51.672;7.834;2023-08-12T13:27:24;26.20;79.50
58809;DHT22;44579;51.672;7.834;2023-08-12T13:29:54;26.20;79.20
58809;DHT22;44579;51.672;7.834;2023-08-12T13:32:21;26.20;79.20
58809;DHT22;44579;51.672;7.834;2023-08-12T13:35:08;26.20;79.10
58809;DHT22;44579;51.672;7.834;2023-08-12T13:37:36;26.20;79.30
58809;DHT22;44579;51.672;7.834;2023-08-12T13:40:07;26.10;79.30
58809;DHT22;44579;51.672;7.834;2023-08-12T13:42:38;26.20;79.40
58809;DHT22;44579;51.672;7.834;2023-08-12T13:45:08;26.10;79.30
58809;DHT22;44579;51.672;7.834;2023-08-12T13:47:36;25.90;79.50
58809;DHT22;44579;51.672;7.834;2023-08-12T13:50:08;25.80;79.60
58809;DHT22;44579;51.672;7.834;2023-08-12T13:52:38;25.70;79.70
58809;DHT22;44579;51.672;7.834;2023-08-12T13:55:10;25.50;79.60
58809;DHT22;44579;51.672;7.834;2023-08-12T13:57:37;25.10;79.30
58809;DHT22;44579;51.672;7.834;2023-08-12T14:00:08;24.70;79.50
58809;DHT22;44579;51.672;7.834;2023-08-12T14:02:42;24.40;79.90
58809;DHT22;44579;51.672;7.834;2023-08-12T14:05:11;24.10;80.10
58809;DHT22;44579;51.672;7.834;2023-08-12T14:07:38;24.00;80.30
58809;DHT22;44579;51.672;7.834;2023-08-12T14:10:06;23.80;80.30
58809;DHT22;44579;51.672;7.834;2023-08-12T14:12:34;23.70;80.10
58809;DHT22;44579;51.672;7.834;2023-08-12T14:15:03;23.70;80.10
58809;DHT22;44579;51.672;7.834;2023-08-12T14:17:31;23.80;79.90
58809;DHT22;44579;51.672;7.834;2023-08-12T14:20:01;23.80;79.60
58809;DHT22;44579;51.672;7.834;2023-08-12T14:22:28;23.90;79.50
58809;DHT22;44579;51.672;7.834;2023-08-12T14:24:55;23.90;79.30
58809;DHT22;44579;51.672;7.834;2023-08-12T14:27:23;23.90;79.20
58809;DHT22;44579;51.672;7.834;2023-08-12T14:29:50;24.00;79.00
58809;DHT22;44579;51.672;7.834;2023-08-12T14:32:20;24.20;78.80
58809;DHT22;44579;51.672;7.834;2023-08-12T14:34:47;24.30;78.50
58809;DHT22;44579;51.672;7.834;2023-08-12T14:37:16;24.50;78.30
58809;DHT22;44579;51.672;7.834;2023-08-12T14:39:43;24.70;78.10
58809;DHT22;44579;51.672;7.834;2023-08-12T14:42:10;24.90;77.80
58809;DHT22;44579;51.672;7.834;2023-08-12T14:44:38;24.90;78.00
58809;DHT22;44579;51.672;7.834;2023-08-12T14:47:05;24.90;78.10
58809;DHT22;44579;51.672;7.834;2023-08-12T14:49:32;25.00;78.10
58809;DHT22;44579;51.672;7.834;2023-08-12T14:52:00;25.00;78.00
58809;DHT22;44579;51.672;7.834;2023-08-12T14:54:27;25.00;78.20
58809;DHT22;44579;51.672;7.834;2023-08-12T14:56:54;24.90;78.40
58809;DHT22;44579;51.672;7.834;2023-08-12T14:59:21;24.80;78.60
58809;DHT22;44579;51.672;7.834;2023-08-12T15:01:51;24.80;78.60
58809;DHT22;44579;51.672;7.834;2023-08-12T15:04:18;24.70;78.60
58809;DHT22;44579;51.672;7.834;2023-08-12T15:06:46;24.60;78.90
58809;DHT22;44579;51.672;7.834;2023-08-12T15:09:13;24.50;79.10
58809;DHT22;44579;51.672;7.834;2023-08-12T15:11:41;24.40;79.00
58809;DHT22;44579;51.672;7.834;2023-08-12T15:14:10;24.30;79.20
58809;DHT22;44579;51.672;7.834;2023-08-12T15:16:38;24.20;79.40
58809;DHT22;44579;51.672;7.834;2023-08-12T15:19:05;24.30;79.40
58809;DHT22;44579;51.672;7.834;2023-08-12T15:21:33;24.40;79.10
58809;DHT22;44579;51.672;7.834;2023-08-12T15:24:00;24.60;78.80
58809;DHT22;44579;51.672;7.834;2023-08-12T15:26:28;24.70;78.60
58809;DHT22;44579;51.672;7.834;2023-08-12T15:28:59;24.90;78.20
58809;DHT22;44579;51.672;7.834;2023-08-12T15:31:28;25.10;77.70
58809;DHT22;44579;51.672;7.834;2023-08-12T15:33:56;25.20;77.70
58809;DHT22;44579;51.672;7.834;2023-08-12T15:36:24;25.20;77.90
58809;DHT22;44579;51.672;7.834;2023-08-12T15:38:55;25.30;78.10
58809;DHT22;44579;51.672;7.834;2023-08-12T15:41:22;25.30;78.00
58809;DHT22;44579;51.672;7.834;2023-08-12T15:43:52;25.50;78.00
58809;DHT22;44579;51.672;7.834;2023-08-12T15:46:19;25.50;78.00
58809;DHT22;44579;51.672;7.834;2023-08-12T15:48:47;25.40;78.20
58809;DHT22;44579;51.672;7.834;2023-08-12T15:51:19;25.40;78.40
58809;DHT22;44579;51.672;7.834;2023-08-12T15:53:51;25.30;78.40
58809;DHT22;44579;51.672;7.834;2023-08-12T15:56:20;25.20;78.40
58809;DHT22;44579;51.672;7.834;2023-08-12T15:58:48;25.20;78.60
58809;DHT22;44579;51.672;7.834;2023-08-12T16:01:17;25.20;78.50
58809;DHT22;44579;51.672;7.834;2023-08-12T16:03:47;25.30;78.40
58809;DHT22;44579;51.672;7.834;2023-08-12T16:06:14;25.20;78.40
58809;DHT22;44579;51.672;7.834;2023-08-12T16:08:44;25.20;78.60
58809;DHT22;44579;51.672;7.834;2023-08-12T16:11:33;25.20;78.70
58809;DHT22;44579;51.672;7.834;2023-08-12T16:14:06;25.30;78.40
58809;DHT22;44579;51.672;7.834;2023-08-12T16:16:37;25.40;78.10
58809;DHT22;44579;51.672;7.834;2023-08-12T16:19:05;25.40;78.00
58809;DHT22;44579;51.672;7.834;2023-08-12T16:21:35;25.30;77.80